createdAt,value
2019-04-04T00:01:06.678Z,11.70
2019-04-04T00:06:03.170Z,11.83
2019-04-04T00:08:32.268Z,12.63
2019-04-04T00:11:01.372Z,13.50
2019-04-04T00:13:30.071Z,14.58
2019-04-04T00:15:58.738Z,15.03
2019-04-04T00:18:28.103Z,14.00
2019-04-04T00:20:56.786Z,12.93
2019-04-04T00:23:25.728Z,13.65
2019-04-04T00:25:54.407Z,14.87
2019-04-04T00:28:23.170Z,15.10
2019-04-04T00:30:51.842Z,14.87
2019-04-04T00:33:20.537Z,16.27
2019-04-04T00:35:49.225Z,15.18
2019-04-04T00:38:17.914Z,14.38
2019-04-04T00:40:46.601Z,14.58
2019-04-04T00:43:15.539Z,13.28
2019-04-04T00:45:44.226Z,13.30
2019-04-04T00:48:13.168Z,12.20
2019-04-04T00:50:42.368Z,12.37
2019-04-04T00:53:11.814Z,11.80
2019-04-04T00:55:41.050Z,12.33
2019-04-04T00:58:09.754Z,11.95
2019-04-04T01:00:38.584Z,12.07
2019-04-04T01:03:07.520Z,12.70
2019-04-04T01:05:36.703Z,13.00
2019-04-04T01:08:07.024Z,12.95
2019-04-04T01:10:36.063Z,14.25
2019-04-04T01:13:04.821Z,12.30
2019-04-04T01:15:33.507Z,12.05
2019-04-04T01:18:04.008Z,12.85
2019-04-04T01:20:33.098Z,12.28
2019-04-04T01:23:01.872Z,11.93
2019-04-04T01:25:32.647Z,12.82
2019-04-04T01:28:01.269Z,12.23
2019-04-04T01:30:29.957Z,13.50
2019-04-04T01:32:58.698Z,12.73
2019-04-04T01:35:27.392Z,13.25
2019-04-04T01:37:58.241Z,13.03
2019-04-04T01:40:26.890Z,13.03
2019-04-04T01:42:55.840Z,13.93
2019-04-04T01:45:24.771Z,13.53
2019-04-04T01:47:53.697Z,13.10
2019-04-04T01:50:23.285Z,15.80
2019-04-04T01:52:52.039Z,13.80
2019-04-04T01:55:20.992Z,12.93
2019-04-04T01:57:50.185Z,13.15
2019-04-04T02:00:19.380Z,12.40
2019-04-04T02:02:48.047Z,12.80
2019-04-04T02:05:16.883Z,11.83
2019-04-04T02:07:45.573Z,13.03
2019-04-04T02:10:14.516Z,12.68
2019-04-04T02:12:43.199Z,12.82
2019-04-04T02:15:14.203Z,9.60
2019-04-04T02:17:42.727Z,10.60
2019-04-04T02:20:11.773Z,10.70
2019-04-04T02:22:40.731Z,10.95
2019-04-04T02:25:09.673Z,8.48
2019-04-04T02:27:38.474Z,8.70
2019-04-04T02:30:14.834Z,10.28
2019-04-04T02:32:40.218Z,9.33
2019-04-04T02:35:10.670Z,11.12
2019-04-04T02:37:40.260Z,11.12
2019-04-04T02:40:10.062Z,11.85
2019-04-04T02:42:39.314Z,12.40
2019-04-04T02:45:08.654Z,10.63
2019-04-04T02:47:37.305Z,11.30
2019-04-04T02:50:06.622Z,11.60
2019-04-04T02:52:35.558Z,11.40
2019-04-04T02:55:04.654Z,10.85
2019-04-04T02:57:33.560Z,10.45
2019-04-04T03:00:03.033Z,11.20
2019-04-04T03:02:31.701Z,11.10
2019-04-04T03:05:00.486Z,10.85
2019-04-04T03:07:31.005Z,10.98
2019-04-04T03:09:59.903Z,11.95
2019-04-04T03:12:28.578Z,12.45
2019-04-04T03:14:57.279Z,12.23
2019-04-04T03:17:26.210Z,12.50
2019-04-04T03:19:55.159Z,13.40
2019-04-04T03:22:24.623Z,12.68
2019-04-04T03:24:54.246Z,12.43
2019-04-04T03:27:26.052Z,12.15
2019-04-04T03:29:53.653Z,13.18
2019-04-04T03:32:22.454Z,14.78
2019-04-04T03:34:51.920Z,14.35
2019-04-04T03:37:20.622Z,14.28
2019-04-04T03:39:52.186Z,14.83
2019-04-04T03:42:19.839Z,17.12
2019-04-04T03:44:52.838Z,16.07
2019-04-04T03:47:19.531Z,16.30
2019-04-04T03:49:48.228Z,17.32
2019-04-04T03:52:19.287Z,21.40
2019-04-04T03:54:47.993Z,19.87
2019-04-04T03:57:16.931Z,19.75
2019-04-04T03:59:46.382Z,20.08
2019-04-04T04:02:17.852Z,18.85
2019-04-04T04:04:45.746Z,19.45
2019-04-04T04:07:15.371Z,20.15
2019-04-04T04:09:44.470Z,20.23
2019-04-04T04:12:13.710Z,19.27
2019-04-04T04:14:42.402Z,19.12
2019-04-04T04:17:11.662Z,19.40
2019-04-04T04:19:41.235Z,21.07
2019-04-04T04:22:12.970Z,20.55
2019-04-04T04:24:41.065Z,19.43
2019-04-04T04:27:14.374Z,20.60
2019-04-04T04:29:40.164Z,32.05
2019-04-04T04:32:08.932Z,33.18
2019-04-04T04:34:37.624Z,37.28
2019-04-04T04:37:06.322Z,30.27
2019-04-04T04:39:40.866Z,34.48
2019-04-04T04:42:05.704Z,47.83
2019-04-04T04:44:37.629Z,51.98
2019-04-04T04:47:05.309Z,49.18
2019-04-04T04:49:35.732Z,32.33
2019-04-04T04:52:04.878Z,30.40
2019-04-04T04:54:33.564Z,25.43
2019-04-04T04:57:03.921Z,36.45
2019-04-04T04:59:32.706Z,35.13
2019-04-04T05:02:01.817Z,21.93
2019-04-04T05:04:30.792Z,21.27
2019-04-04T05:06:59.827Z,25.00
2019-04-04T05:09:28.765Z,24.47
2019-04-04T05:11:57.482Z,36.70
2019-04-04T05:14:29.811Z,49.08
2019-04-04T05:16:59.051Z,23.85
2019-04-04T05:19:27.844Z,29.07
2019-04-04T05:21:56.552Z,27.82
2019-04-04T05:24:25.750Z,24.87
2019-04-04T05:26:54.706Z,23.15
2019-04-04T05:29:23.361Z,24.23
2019-04-04T05:31:52.166Z,23.73
2019-04-04T05:34:21.423Z,23.87
2019-04-04T05:36:50.123Z,23.67
2019-04-04T05:39:19.097Z,29.10
2019-04-04T05:41:48.179Z,23.47
2019-04-04T05:44:16.839Z,21.00
2019-04-04T05:46:45.550Z,23.30
2019-04-04T05:49:14.262Z,20.80
2019-04-04T05:51:42.975Z,23.85
2019-04-04T05:54:11.687Z,19.55
2019-04-04T05:56:40.653Z,22.55
2019-04-04T05:59:09.344Z,23.32
2019-04-04T06:01:38.040Z,30.57
2019-04-04T06:04:06.995Z,43.85
2019-04-04T06:06:36.055Z,18.70
2019-04-04T06:09:25.738Z,20.02
2019-04-04T06:11:55.339Z,21.50
2019-04-04T06:14:24.032Z,20.45
2019-04-04T06:16:53.010Z,21.15
2019-04-04T06:19:21.785Z,21.95
2019-04-04T06:21:51.212Z,21.02
2019-04-04T06:24:20.135Z,22.73
2019-04-04T06:26:48.829Z,21.17
2019-04-04T06:29:18.039Z,23.00
2019-04-04T06:31:48.217Z,23.02
2019-04-04T06:34:16.920Z,24.47
2019-04-04T06:36:46.997Z,25.85
2019-04-04T06:39:16.331Z,23.12
2019-04-04T06:41:45.613Z,23.32
2019-04-04T06:44:14.304Z,25.43
2019-04-04T06:46:43.025Z,27.70
2019-04-04T06:49:12.571Z,23.80
2019-04-04T06:51:41.502Z,22.37
2019-04-04T06:54:10.215Z,19.62
2019-04-04T06:56:38.896Z,18.87
2019-04-04T06:59:11.221Z,19.87
2019-04-04T07:01:40.858Z,20.27
2019-04-04T07:04:09.548Z,20.68
2019-04-04T07:06:38.230Z,20.48
2019-04-04T07:09:08.070Z,19.70
2019-04-04T07:11:36.760Z,20.48
2019-04-04T07:14:05.705Z,18.90
2019-04-04T07:16:36.826Z,20.10
2019-04-04T07:19:07.717Z,22.82
2019-04-04T07:21:35.732Z,24.57
2019-04-04T07:24:04.515Z,36.45
2019-04-04T07:26:33.478Z,23.25
2019-04-04T07:29:02.249Z,30.80
2019-04-04T07:31:34.012Z,27.20
2019-04-04T07:34:02.530Z,41.50
2019-04-04T07:36:31.271Z,29.35
2019-04-04T07:39:00.312Z,23.25
2019-04-04T07:41:30.042Z,23.57
2019-04-04T07:43:59.001Z,23.40
2019-04-04T07:46:27.727Z,25.97
2019-04-04T07:48:56.431Z,23.38
2019-04-04T07:51:25.115Z,21.95
2019-04-04T07:53:53.816Z,23.90
2019-04-04T07:56:22.547Z,23.25
2019-04-04T07:58:51.298Z,21.97
2019-04-04T08:01:19.987Z,22.70
2019-04-04T08:03:48.701Z,21.02
2019-04-04T08:06:17.376Z,23.07
2019-04-04T08:08:46.080Z,22.90
2019-04-04T08:11:14.795Z,23.00
2019-04-04T08:13:43.990Z,20.75
2019-04-04T08:16:12.942Z,19.95
2019-04-04T08:18:41.879Z,18.00
2019-04-04T08:21:10.906Z,18.40
2019-04-04T08:23:39.702Z,19.55
2019-04-04T08:26:10.098Z,20.32
2019-04-04T08:28:39.392Z,18.98
2019-04-04T08:31:09.774Z,17.45
2019-04-04T08:33:38.690Z,17.55
2019-04-04T08:36:07.470Z,16.12
2019-04-04T08:38:36.254Z,16.95
2019-04-04T08:41:05.081Z,17.40
2019-04-04T08:43:33.774Z,16.93
2019-04-04T08:46:02.793Z,16.70
2019-04-04T08:48:31.561Z,15.10
2019-04-04T08:51:00.332Z,15.05
2019-04-04T08:53:39.252Z,14.47
2019-04-04T08:55:59.722Z,15.63
2019-04-04T08:58:28.497Z,15.35
2019-04-04T09:00:57.192Z,16.15
2019-04-04T09:03:25.976Z,16.30
2019-04-04T09:05:54.763Z,16.90
2019-04-04T09:08:23.891Z,16.82
2019-04-04T09:10:52.837Z,17.02
2019-04-04T09:13:21.865Z,15.43
2019-04-04T09:15:50.826Z,15.80
2019-04-04T09:18:19.775Z,14.20
2019-04-04T09:20:48.733Z,15.93
2019-04-04T09:23:17.510Z,18.27
2019-04-04T09:25:46.341Z,16.93
2019-04-04T09:38:40.126Z,15.55
2019-04-04T09:41:08.849Z,13.85
2019-04-04T09:43:39.115Z,14.43
2019-04-04T09:46:08.227Z,15.30
2019-04-04T09:48:36.952Z,15.78
2019-04-04T09:51:05.730Z,16.82
2019-04-04T09:53:34.749Z,20.60
2019-04-04T09:56:03.761Z,20.68
2019-04-04T09:58:32.517Z,20.72
2019-04-04T10:01:01.367Z,19.40
2019-04-04T10:03:30.084Z,18.32
2019-04-04T10:05:59.147Z,19.92
2019-04-04T10:08:27.859Z,21.17
2019-04-04T10:10:56.867Z,19.10
2019-04-04T10:13:25.541Z,19.98
2019-04-04T10:15:54.956Z,16.50
2019-04-04T10:18:23.639Z,17.30
2019-04-04T10:20:52.349Z,18.05
2019-04-04T10:23:21.589Z,16.97
2019-04-04T10:25:50.575Z,15.98
2019-04-04T10:28:19.760Z,15.98
2019-04-04T10:30:48.538Z,17.73
2019-04-04T10:33:17.225Z,18.25
2019-04-04T10:35:46.226Z,19.67
2019-04-04T10:38:14.945Z,20.90
2019-04-04T10:40:43.903Z,20.30
2019-04-04T10:43:12.622Z,17.10
2019-04-04T10:45:41.336Z,15.08
2019-04-04T10:48:10.031Z,16.40
2019-04-04T10:50:38.749Z,16.52
2019-04-04T10:53:07.432Z,16.60
2019-04-04T10:55:36.467Z,16.35
2019-04-04T10:58:05.370Z,17.30
2019-04-04T11:00:34.393Z,18.02
2019-04-04T11:03:03.341Z,18.80
2019-04-04T11:05:35.212Z,19.42
2019-04-04T11:08:02.776Z,21.37
2019-04-04T11:10:31.456Z,22.20
2019-04-04T11:13:02.723Z,22.45
2019-04-04T11:15:30.590Z,23.62
2019-04-04T11:17:59.834Z,21.30
2019-04-04T11:20:28.545Z,22.32
2019-04-04T11:22:57.288Z,22.45
2019-04-04T11:25:26.260Z,23.50
2019-04-04T11:27:54.956Z,23.12
2019-04-04T11:30:23.818Z,24.15
2019-04-04T11:32:52.756Z,22.85
2019-04-04T11:35:23.163Z,24.02
2019-04-04T11:37:52.083Z,23.60
2019-04-04T11:40:20.789Z,21.77
2019-04-04T11:42:49.764Z,23.30
2019-04-04T11:45:18.852Z,24.20
2019-04-04T11:47:47.562Z,25.80
2019-04-04T11:50:16.346Z,23.90
2019-04-04T11:52:45.043Z,25.55
2019-04-04T11:55:13.745Z,22.30
2019-04-04T11:57:42.458Z,23.25
2019-04-04T12:00:13.528Z,24.90
2019-04-04T12:02:42.306Z,22.98
2019-04-04T12:05:11.238Z,24.87
2019-04-04T12:07:40.447Z,25.95
2019-04-04T12:10:10.658Z,22.45
2019-04-04T12:12:39.374Z,23.42
2019-04-04T12:15:10.712Z,24.35
2019-04-04T12:17:39.446Z,22.95
2019-04-04T12:20:08.887Z,24.63
2019-04-04T12:22:37.879Z,23.38
2019-04-04T12:25:06.945Z,24.27
2019-04-04T12:27:36.144Z,27.70
2019-04-04T12:30:06.506Z,26.02
2019-04-04T12:32:35.233Z,26.82
2019-04-04T12:35:04.798Z,23.62
2019-04-04T12:37:33.548Z,24.15
2019-04-04T12:40:02.526Z,24.70
2019-04-04T12:42:31.488Z,26.42
2019-04-04T12:45:00.198Z,25.32
2019-04-04T12:47:29.157Z,24.25
2019-04-04T12:49:58.129Z,27.13
2019-04-04T12:52:27.096Z,26.73
2019-04-04T12:54:55.819Z,26.05
2019-04-04T12:57:24.561Z,24.60
2019-04-04T12:59:53.815Z,25.80
2019-04-04T13:02:22.495Z,26.07
2019-04-04T13:04:51.939Z,27.05
2019-04-04T13:07:20.674Z,29.50
2019-04-04T13:09:49.378Z,24.63
2019-04-04T13:12:18.348Z,24.92
2019-04-04T13:14:47.173Z,28.30
2019-04-04T13:17:15.891Z,29.20
2019-04-04T13:19:44.595Z,29.12
2019-04-04T13:22:13.393Z,24.82
2019-04-04T13:24:42.171Z,25.90
2019-04-04T13:27:10.971Z,27.02
2019-04-04T13:29:39.652Z,24.18
2019-04-04T13:32:08.632Z,28.07
2019-04-04T13:34:39.825Z,27.65
2019-04-04T13:37:08.796Z,30.47
2019-04-04T13:39:37.485Z,29.23
2019-04-04T13:42:06.366Z,29.72
2019-04-04T13:44:35.327Z,29.60
2019-04-04T13:47:04.113Z,28.50
2019-04-04T13:49:32.817Z,31.23
2019-04-04T13:52:01.506Z,31.00
2019-04-04T13:54:30.211Z,30.57
2019-04-04T13:56:58.950Z,31.48
2019-04-04T13:59:27.934Z,30.77
2019-04-04T14:01:57.165Z,32.17
2019-04-04T14:04:25.872Z,30.60
2019-04-04T14:06:54.850Z,29.50
2019-04-04T14:09:23.568Z,29.12
2019-04-04T14:11:52.268Z,32.28
2019-04-04T14:14:21.319Z,32.45
2019-04-04T14:16:50.049Z,33.45
2019-04-04T14:19:19.009Z,34.33
2019-04-04T14:21:50.742Z,32.88
2019-04-04T14:24:19.685Z,32.65
2019-04-04T14:26:48.638Z,40.52
2019-04-04T14:29:27.138Z,39.75
2019-04-04T14:31:47.824Z,38.92
2019-04-04T14:34:16.573Z,36.65
2019-04-04T14:36:45.266Z,36.05
2019-04-04T14:39:13.961Z,36.88
2019-04-04T14:41:42.682Z,38.55
2019-04-04T14:44:11.646Z,37.50
2019-04-04T14:46:40.523Z,36.28
2019-04-04T14:49:09.215Z,37.80
2019-04-04T14:51:37.975Z,34.90
2019-04-04T14:54:06.751Z,38.30
2019-04-04T14:56:35.476Z,39.65
2019-04-04T14:59:04.285Z,38.40
2019-04-04T15:01:35.076Z,42.93
2019-04-04T15:04:03.422Z,43.85
2019-04-04T15:06:32.422Z,42.95
2019-04-04T15:09:01.170Z,41.48
2019-04-04T15:11:29.812Z,42.45
2019-04-04T15:13:58.521Z,42.88
2019-04-04T15:16:27.484Z,42.17
2019-04-04T15:18:56.422Z,44.03
2019-04-04T15:21:25.097Z,41.63
2019-04-04T15:23:53.853Z,42.62
2019-04-04T15:26:22.788Z,42.08
2019-04-04T15:28:51.509Z,39.75
2019-04-04T15:31:20.265Z,42.60
2019-04-04T15:33:50.467Z,42.78
2019-04-04T15:36:19.419Z,41.08
2019-04-04T15:38:50.256Z,42.15
2019-04-04T15:41:19.095Z,41.45
2019-04-04T15:43:47.861Z,42.20
2019-04-04T15:46:16.787Z,43.68
2019-04-04T15:48:45.783Z,43.00
2019-04-04T15:51:14.482Z,44.48
2019-04-04T15:53:43.532Z,44.63
2019-04-04T15:56:13.309Z,44.23
2019-04-04T15:58:42.516Z,44.88
2019-04-04T16:01:11.259Z,43.15
2019-04-04T16:03:41.288Z,42.85
2019-04-04T16:06:10.042Z,44.45
2019-04-04T16:08:39.298Z,44.95
2019-04-04T16:11:08.007Z,41.02
2019-04-04T16:13:36.971Z,45.98
2019-04-04T16:16:05.835Z,43.20
2019-04-04T16:18:34.609Z,45.30
2019-04-04T16:21:03.576Z,46.65
2019-04-04T16:23:32.273Z,43.52
2019-04-04T16:26:00.994Z,45.65
2019-04-04T16:28:29.939Z,45.70
2019-04-04T16:30:58.901Z,43.35
2019-04-04T16:33:27.623Z,45.38
2019-04-04T16:35:56.312Z,47.27
2019-04-04T16:38:25.064Z,47.67
2019-04-04T16:40:53.772Z,45.70
2019-04-04T16:43:22.476Z,46.95
2019-04-04T16:45:51.453Z,46.33
2019-04-04T16:48:20.426Z,47.23
2019-04-04T16:50:49.623Z,47.70
2019-04-04T16:53:18.586Z,48.58
2019-04-04T16:55:47.298Z,48.90
2019-04-04T16:58:16.250Z,49.10
2019-04-04T17:00:44.953Z,52.75
2019-04-04T17:03:13.998Z,54.03
2019-04-04T17:05:42.696Z,53.65
2019-04-04T17:08:11.674Z,53.33
2019-04-04T17:10:40.377Z,55.52
2019-04-04T17:13:09.075Z,57.10
2019-04-04T17:15:37.864Z,54.73
2019-04-04T17:18:06.748Z,55.00
2019-04-04T17:20:35.669Z,55.60
2019-04-04T17:23:04.515Z,50.92
2019-04-04T17:25:33.496Z,55.08
2019-04-04T17:28:02.495Z,50.17
2019-04-04T17:30:31.498Z,49.65
2019-04-04T17:33:00.255Z,53.17
2019-04-04T17:35:29.371Z,55.35
2019-04-04T17:37:58.167Z,53.50
2019-04-04T17:40:27.111Z,50.48
2019-04-04T17:42:56.767Z,50.95
2019-04-04T17:45:25.542Z,50.58
2019-04-04T17:47:54.602Z,51.60
2019-04-04T17:50:26.355Z,51.08
2019-04-04T17:52:55.162Z,53.17
2019-04-04T17:55:24.196Z,52.85
2019-04-04T17:57:52.863Z,54.83
2019-04-04T18:00:23.238Z,56.75
2019-04-04T18:02:52.209Z,56.73
2019-04-04T18:05:21.222Z,54.90
2019-04-04T18:07:50.222Z,51.15
2019-04-04T18:10:19.623Z,55.10
2019-04-04T18:12:48.570Z,56.73
2019-04-04T18:15:17.922Z,55.88
2019-04-04T18:17:46.849Z,55.43
2019-04-04T18:20:16.058Z,55.78
2019-04-04T18:22:44.784Z,59.75
2019-04-04T18:25:13.746Z,59.03
2019-04-04T18:27:42.862Z,57.62
2019-04-04T18:30:12.285Z,55.23
2019-04-04T18:32:41.113Z,55.43
2019-04-04T18:35:10.590Z,59.10
2019-04-04T18:37:39.392Z,54.70
2019-04-04T18:40:15.146Z,56.18
2019-04-04T18:42:53.294Z,54.73
2019-04-04T18:45:15.323Z,48.85
2019-04-04T18:47:44.075Z,50.95
2019-04-04T18:50:15.270Z,47.23
2019-04-04T18:52:43.975Z,48.83
2019-04-04T18:55:19.609Z,47.43
2019-04-04T18:57:44.559Z,46.28
2019-04-04T19:00:14.119Z,46.37
2019-04-04T19:02:43.371Z,50.60
2019-04-04T19:05:12.799Z,47.62
2019-04-04T19:07:43.873Z,52.65
2019-04-04T19:10:14.655Z,49.05
2019-04-04T19:12:45.539Z,51.17
2019-04-04T19:15:15.966Z,48.15
2019-04-04T19:17:44.672Z,52.40
2019-04-04T19:20:13.649Z,49.35
2019-04-04T19:22:43.764Z,50.33
2019-04-04T19:25:13.833Z,47.13
2019-04-04T19:27:43.501Z,49.98
2019-04-04T19:30:13.024Z,44.80
2019-04-04T19:32:41.977Z,47.35
2019-04-04T19:35:10.918Z,42.23
2019-04-04T19:37:39.634Z,45.78
2019-04-04T19:40:08.980Z,42.67
2019-04-04T19:42:37.929Z,43.02
2019-04-04T19:45:07.275Z,44.08
2019-04-04T19:47:36.624Z,42.05
2019-04-04T19:50:06.451Z,41.83
2019-04-04T19:52:35.814Z,41.83
2019-04-04T19:55:05.045Z,41.33
2019-04-04T19:57:34.276Z,39.35
2019-04-04T20:00:03.011Z,45.00
2019-04-04T20:02:31.779Z,46.08
2019-04-04T20:05:00.426Z,43.50
2019-04-04T20:07:29.135Z,47.43
2019-04-04T20:09:58.169Z,46.28
2019-04-04T20:12:26.973Z,46.20
2019-04-04T20:14:56.036Z,44.75
2019-04-04T20:17:25.264Z,44.38
2019-04-04T20:19:54.063Z,43.15
2019-04-04T20:22:23.010Z,41.77
2019-04-04T20:24:51.680Z,46.75
2019-04-04T20:27:20.463Z,44.58
2019-04-04T20:29:49.148Z,43.83
2019-04-04T20:32:18.117Z,40.67
2019-04-04T20:34:47.038Z,37.13
2019-04-04T20:37:16.082Z,39.67
2019-04-04T20:39:45.027Z,40.58
2019-04-04T20:42:13.713Z,41.05
2019-04-04T20:44:42.413Z,44.35
2019-04-04T20:47:11.249Z,44.05
2019-04-04T20:49:40.189Z,44.60
2019-04-04T20:52:08.908Z,43.52
2019-04-04T20:54:37.586Z,41.70
2019-04-04T20:57:06.564Z,45.12
2019-04-04T20:59:35.344Z,40.08
2019-04-04T21:02:04.159Z,40.73
2019-04-04T21:04:33.124Z,42.40
2019-04-04T21:07:01.863Z,41.25
2019-04-04T21:09:30.564Z,43.98
2019-04-04T21:11:59.290Z,43.68
2019-04-04T21:14:28.324Z,48.70
2019-04-04T21:16:57.055Z,44.58
2019-04-04T21:19:25.809Z,46.02
2019-04-04T21:21:54.529Z,45.30
2019-04-04T21:24:23.453Z,43.58
2019-04-04T21:26:52.177Z,48.98
2019-04-04T21:29:21.142Z,48.52
2019-04-04T21:31:50.199Z,44.18
2019-04-04T21:34:19.125Z,46.28
2019-04-04T21:36:47.854Z,44.80
2019-04-04T21:39:17.356Z,46.35
2019-04-04T21:41:46.074Z,50.10
2019-04-04T21:44:14.789Z,46.90
2019-04-04T21:46:43.534Z,47.90
2019-04-04T21:49:12.235Z,47.65
2019-04-04T21:51:41.191Z,45.17
2019-04-04T21:54:09.941Z,46.98
2019-04-04T21:56:38.652Z,46.10
2019-04-04T21:59:07.456Z,49.53
2019-04-04T22:01:36.556Z,43.10
2019-04-04T22:04:05.436Z,47.88
2019-04-04T22:06:34.445Z,43.02
2019-04-04T22:09:04.987Z,42.78
2019-04-04T22:11:33.701Z,44.60
2019-04-04T22:14:02.415Z,41.45
2019-04-04T22:16:31.385Z,38.58
2019-04-04T22:19:00.090Z,40.33
2019-04-04T22:21:28.780Z,41.37
2019-04-04T22:23:57.509Z,44.20
2019-04-04T22:26:26.245Z,43.45
2019-04-04T22:28:55.345Z,43.15
2019-04-04T22:31:24.040Z,43.08
2019-04-04T22:33:53.007Z,42.53
2019-04-04T22:36:21.743Z,41.90
2019-04-04T22:38:50.479Z,44.25
2019-04-04T22:41:19.478Z,42.05
2019-04-04T22:43:48.294Z,40.90
2019-04-04T22:46:17.017Z,41.48
2019-04-04T22:48:45.724Z,42.90
2019-04-04T22:51:14.661Z,47.80
2019-04-04T22:53:43.890Z,48.20
2019-04-04T22:56:12.831Z,46.92
2019-04-04T22:58:41.783Z,44.05
2019-04-04T23:01:10.491Z,45.20
2019-04-04T23:03:39.431Z,44.00
2019-04-04T23:06:08.439Z,46.83
2019-04-04T23:08:37.383Z,49.45
2019-04-04T23:11:06.133Z,53.15
2019-04-04T23:13:35.089Z,42.83
2019-04-04T23:16:04.083Z,41.40
2019-04-04T23:18:32.781Z,38.13
2019-04-04T23:21:01.444Z,44.30
2019-04-04T23:23:30.161Z,47.03
2019-04-04T23:25:59.104Z,42.40
2019-04-04T23:28:27.809Z,45.88
2019-04-04T23:30:56.518Z,41.15
2019-04-04T23:33:25.475Z,41.20
2019-04-04T23:35:54.161Z,42.17
2019-04-04T23:38:22.864Z,41.53
2019-04-04T23:40:51.543Z,43.23
2019-04-04T23:43:20.315Z,42.60
2019-04-04T23:45:49.061Z,42.67
2019-04-04T23:48:17.995Z,35.83
2019-04-04T23:50:46.901Z,43.90
2019-04-04T23:53:15.863Z,42.62
2019-04-04T23:55:44.535Z,33.38
2019-04-04T23:58:16.214Z,44.20
